createdAt,value
2017-09-23T00:00:35.818Z,92.90
2017-09-23T00:03:04.850Z,93.00
2017-09-23T00:05:33.112Z,93.00
2017-09-23T00:08:01.394Z,93.20
2017-09-23T00:10:29.750Z,93.20
2017-09-23T00:12:58.021Z,93.30
2017-09-23T00:15:27.047Z,93.60
2017-09-23T00:17:55.304Z,93.60
2017-09-23T00:20:23.559Z,94.40
2017-09-23T00:22:52.594Z,94.90
2017-09-23T00:25:20.855Z,94.90
2017-09-23T00:27:49.117Z,95.20
2017-09-23T00:30:17.383Z,95.30
2017-09-23T00:32:46.415Z,95.10
2017-09-23T00:35:14.671Z,95.10
2017-09-23T00:37:42.925Z,95.40
2017-09-23T00:40:11.951Z,95.10
2017-09-23T00:42:40.219Z,95.10
2017-09-23T00:45:08.473Z,94.80
2017-09-23T00:47:36.741Z,94.40
2017-09-23T00:50:05.767Z,94.20
2017-09-23T00:52:34.040Z,94.20
2017-09-23T00:55:02.287Z,94.30
2017-09-23T00:57:31.332Z,94.20
2017-09-23T00:59:59.599Z,94.10
2017-09-23T01:02:27.855Z,94.10
2017-09-23T01:04:56.112Z,93.90
2017-09-23T01:07:25.154Z,93.80
2017-09-23T01:09:53.415Z,93.80
2017-09-23T01:12:21.675Z,94.10
2017-09-23T01:14:49.947Z,94.10
2017-09-23T01:17:18.200Z,94.10
2017-09-23T01:19:47.230Z,94.70
2017-09-23T01:22:15.488Z,94.70
2017-09-23T01:24:43.751Z,94.60
2017-09-23T01:27:12.863Z,94.60
2017-09-23T01:29:41.122Z,94.60
2017-09-23T01:32:09.382Z,94.30
2017-09-23T01:34:38.419Z,93.70
2017-09-23T01:37:06.680Z,93.70
2017-09-23T01:39:34.941Z,93.70
2017-09-23T01:42:03.211Z,94.00
2017-09-23T01:44:32.235Z,94.10
2017-09-23T01:47:00.491Z,94.10
2017-09-23T01:49:28.764Z,94.10
2017-09-23T01:51:57.792Z,94.30
2017-09-23T01:54:26.059Z,94.30
2017-09-23T01:56:54.311Z,94.50
2017-09-23T01:59:23.334Z,95.40
2017-09-23T02:01:51.604Z,95.40
2017-09-23T02:04:19.859Z,94.60
2017-09-23T02:06:48.116Z,94.10
2017-09-23T02:09:16.382Z,94.10
2017-09-23T02:11:44.643Z,94.10
2017-09-23T02:14:13.672Z,94.30
2017-09-23T02:16:41.927Z,94.30
2017-09-23T02:19:10.195Z,95.00
2017-09-23T02:21:39.210Z,95.50
2017-09-23T02:24:07.474Z,95.50
2017-09-23T02:26:35.736Z,95.70
2017-09-23T02:29:04.765Z,95.90
2017-09-23T02:31:33.011Z,95.90
2017-09-23T02:34:02.044Z,95.60
2017-09-23T02:36:30.293Z,95.60
2017-09-23T02:38:58.556Z,95.50
2017-09-23T02:41:27.570Z,94.90
2017-09-23T02:43:55.831Z,94.90
2017-09-23T02:46:24.087Z,95.00
2017-09-23T02:48:53.112Z,94.80
2017-09-23T02:51:21.367Z,94.70
2017-09-23T02:53:50.397Z,96.00
2017-09-23T02:56:18.646Z,96.00
2017-09-23T02:58:46.902Z,96.00
2017-09-23T03:01:15.925Z,96.00
2017-09-23T03:03:44.185Z,95.90
2017-09-23T03:06:13.200Z,95.70
2017-09-23T03:08:41.449Z,95.70
2017-09-23T03:11:09.711Z,95.70
2017-09-23T03:13:38.734Z,95.70
2017-09-23T03:16:06.985Z,95.70
2017-09-23T03:18:36.006Z,95.50
2017-09-23T03:21:04.262Z,95.50
2017-09-23T03:23:33.287Z,96.10
2017-09-23T03:26:01.535Z,95.80
2017-09-23T03:28:30.559Z,95.80
2017-09-23T03:30:58.813Z,95.80
2017-09-23T03:33:27.079Z,96.10
2017-09-23T03:35:55.337Z,96.30
2017-09-23T03:38:24.358Z,97.30
2017-09-23T03:40:52.607Z,97.30
2017-09-23T03:43:21.641Z,97.80
2017-09-23T03:45:49.898Z,97.70
2017-09-23T03:48:18.150Z,97.80
2017-09-23T03:50:47.166Z,97.60
2017-09-23T03:53:15.424Z,97.50
2017-09-23T03:55:44.455Z,97.50
2017-09-23T03:58:12.696Z,97.50
2017-09-23T04:00:41.705Z,96.40
2017-09-23T04:03:09.956Z,96.40
2017-09-23T04:05:38.975Z,96.80
2017-09-23T04:08:07.222Z,96.80
2017-09-23T04:10:35.482Z,96.90
2017-09-23T04:13:03.734Z,96.30
2017-09-23T04:15:31.988Z,96.40
2017-09-23T04:18:00.251Z,97.00
2017-09-23T04:20:28.507Z,96.60
2017-09-23T04:22:57.541Z,96.30
2017-09-23T04:25:25.790Z,96.30
2017-09-23T04:27:54.049Z,96.50
2017-09-23T04:30:23.062Z,97.10
2017-09-23T04:32:51.343Z,97.00
2017-09-23T04:35:19.602Z,96.90
2017-09-23T04:37:48.614Z,97.20
2017-09-23T04:40:16.880Z,96.90
2017-09-23T04:42:45.123Z,96.90
2017-09-23T04:45:14.142Z,96.90
2017-09-23T04:47:42.390Z,96.90
2017-09-23T04:50:10.646Z,96.80
2017-09-23T04:52:38.901Z,96.50
2017-09-23T04:55:07.175Z,96.30
2017-09-23T04:57:35.429Z,96.30
2017-09-23T05:00:03.685Z,96.60
2017-09-23T05:02:32.698Z,97.00
2017-09-23T05:05:00.955Z,97.00
2017-09-23T05:07:29.967Z,96.60
2017-09-23T05:09:58.530Z,96.60
2017-09-23T05:12:27.544Z,96.50
2017-09-23T05:14:55.796Z,96.50
2017-09-23T05:17:24.859Z,96.30
2017-09-23T05:19:53.122Z,96.30
2017-09-23T05:22:21.367Z,96.60
2017-09-23T05:24:49.626Z,96.20
2017-09-23T05:27:18.644Z,96.40
2017-09-23T05:29:46.893Z,96.40
2017-09-23T05:32:15.916Z,96.20
2017-09-23T05:34:44.171Z,96.20
2017-09-23T05:37:12.423Z,96.20
2017-09-23T05:39:41.448Z,96.10
2017-09-23T05:42:09.704Z,96.10
2017-09-23T05:44:38.725Z,95.60
2017-09-23T05:47:06.973Z,95.60
2017-09-23T05:49:35.998Z,95.70
2017-09-23T05:52:04.251Z,95.60
2017-09-23T05:54:32.526Z,96.10
2017-09-23T05:57:00.778Z,96.40
2017-09-23T05:59:29.809Z,96.40
2017-09-23T06:01:58.066Z,96.40
2017-09-23T06:04:26.331Z,96.50
2017-09-23T06:06:55.355Z,96.30
2017-09-23T06:09:23.605Z,96.00
2017-09-23T06:11:52.618Z,96.00
2017-09-23T06:14:20.884Z,95.90
2017-09-23T06:16:49.136Z,96.00
2017-09-23T06:19:17.398Z,95.90
2017-09-23T06:21:45.651Z,96.00
2017-09-23T06:24:13.902Z,95.60
2017-09-23T06:26:42.930Z,95.10
2017-09-23T06:29:11.196Z,95.00
2017-09-23T06:31:39.452Z,94.90
2017-09-23T06:34:08.476Z,94.00
2017-09-23T06:36:36.732Z,93.90
2017-09-23T06:39:05.015Z,94.10
2017-09-23T06:41:33.270Z,94.20
2017-09-23T06:44:02.295Z,93.60
2017-09-23T06:46:30.563Z,93.60
2017-09-23T06:48:58.822Z,93.90
2017-09-23T06:51:27.847Z,93.20
2017-09-23T06:53:56.108Z,93.20
2017-09-23T06:56:24.371Z,93.90
2017-09-23T06:58:52.627Z,93.50
2017-09-23T07:01:21.654Z,92.70
2017-09-23T07:03:49.915Z,92.70
2017-09-23T07:06:18.190Z,92.60
2017-09-23T07:08:46.454Z,92.50
2017-09-23T07:11:15.478Z,92.80
2017-09-23T07:13:43.734Z,92.80
2017-09-23T07:16:12.010Z,92.80
2017-09-23T07:18:40.266Z,93.00
2017-09-23T07:21:09.313Z,92.80
2017-09-23T07:23:37.566Z,92.80
2017-09-23T07:26:05.829Z,93.30
2017-09-23T07:28:34.089Z,92.80
2017-09-23T07:31:02.373Z,93.20
2017-09-23T07:33:31.410Z,93.10
2017-09-23T07:35:59.677Z,93.10
2017-09-23T07:38:27.932Z,92.80
2017-09-23T07:40:56.192Z,91.60
2017-09-23T07:43:25.223Z,91.30
2017-09-23T07:45:53.502Z,91.30
2017-09-23T07:48:21.763Z,91.30
2017-09-23T07:50:50.027Z,91.40
2017-09-23T07:53:18.285Z,90.70
2017-09-23T07:55:47.318Z,91.00
2017-09-23T07:58:15.581Z,91.00
2017-09-23T08:00:43.843Z,90.80
2017-09-23T08:03:12.105Z,90.00
2017-09-23T08:05:41.129Z,90.60
2017-09-23T08:08:09.388Z,90.60
2017-09-23T08:10:37.650Z,90.20
2017-09-23T08:13:06.676Z,88.80
2017-09-23T08:15:34.932Z,88.80
2017-09-23T08:18:03.195Z,87.70
2017-09-23T08:20:31.454Z,87.10
2017-09-23T08:22:59.729Z,86.40
2017-09-23T08:25:27.991Z,86.40
2017-09-23T08:27:56.251Z,85.80
2017-09-23T08:30:24.524Z,86.10
2017-09-23T08:32:52.780Z,85.10
2017-09-23T08:35:21.046Z,86.00
2017-09-23T08:37:49.300Z,86.80
2017-09-23T08:40:18.331Z,88.00
2017-09-23T08:42:46.701Z,87.90
2017-09-23T08:45:14.974Z,87.80
2017-09-23T08:47:43.243Z,88.50
2017-09-23T08:50:11.506Z,88.10
2017-09-23T08:52:39.795Z,87.50
2017-09-23T08:55:08.061Z,87.10
2017-09-23T08:57:37.082Z,84.50
2017-09-23T09:00:05.355Z,84.50
2017-09-23T09:02:33.606Z,84.70
2017-09-23T09:05:01.882Z,85.00
2017-09-23T09:07:30.154Z,85.40
2017-09-23T09:09:58.483Z,85.50
2017-09-23T09:12:26.744Z,84.00
2017-09-23T09:14:55.007Z,83.90
2017-09-23T09:17:23.275Z,83.20
2017-09-23T09:19:51.536Z,85.40
2017-09-23T09:22:20.560Z,82.90
2017-09-23T09:24:48.825Z,82.90
2017-09-23T09:27:17.084Z,83.00
2017-09-23T09:29:45.342Z,83.10
2017-09-23T09:32:14.366Z,82.10
2017-09-23T09:34:42.614Z,82.00
2017-09-23T09:37:11.650Z,79.50
2017-09-23T09:39:39.911Z,79.40
2017-09-23T09:42:08.170Z,77.20
2017-09-23T09:44:37.180Z,78.10
2017-09-23T09:47:05.443Z,78.00
2017-09-23T09:49:33.701Z,77.20
2017-09-23T09:52:02.731Z,75.90
2017-09-23T09:54:30.984Z,75.80
2017-09-23T09:56:59.246Z,75.20
2017-09-23T09:59:28.276Z,75.50
2017-09-23T10:01:56.543Z,75.30
2017-09-23T10:04:24.794Z,75.90
2017-09-23T10:06:53.829Z,74.60
2017-09-23T10:09:22.085Z,74.60
2017-09-23T10:11:50.349Z,72.70
2017-09-23T10:14:19.364Z,72.90
2017-09-23T10:16:47.675Z,72.90
2017-09-23T10:19:15.932Z,72.80
2017-09-23T10:21:44.197Z,72.90
2017-09-23T10:24:12.447Z,73.00
2017-09-23T10:26:40.714Z,73.00
2017-09-23T10:29:09.731Z,73.30
2017-09-23T10:31:37.995Z,73.30
2017-09-23T10:34:06.254Z,71.10
2017-09-23T10:36:35.284Z,70.90
2017-09-23T10:39:03.534Z,70.80
2017-09-23T10:41:31.799Z,68.80
2017-09-23T10:44:00.822Z,69.30
2017-09-23T10:46:29.076Z,69.20
2017-09-23T10:48:58.093Z,68.40
2017-09-23T10:51:26.356Z,68.10
2017-09-23T10:53:54.608Z,70.30
2017-09-23T10:56:23.633Z,67.70
2017-09-23T10:58:51.934Z,67.60
2017-09-23T11:01:20.197Z,64.60
2017-09-23T11:03:49.218Z,60.40
2017-09-23T11:06:17.486Z,60.10
2017-09-23T11:08:45.832Z,58.20
2017-09-23T11:11:14.233Z,58.60
2017-09-23T11:13:42.641Z,59.20
2017-09-23T11:16:10.973Z,57.60
2017-09-23T11:18:39.986Z,55.00
2017-09-23T11:21:08.262Z,55.20
2017-09-23T11:23:36.517Z,55.60
2017-09-23T11:26:05.540Z,55.30
2017-09-23T11:28:33.792Z,55.30
2017-09-23T11:31:02.816Z,56.50
2017-09-23T11:33:31.073Z,56.40
2017-09-23T11:35:59.340Z,55.90
2017-09-23T11:38:27.608Z,54.60
2017-09-23T11:40:56.632Z,51.70
2017-09-23T11:43:24.887Z,51.70
2017-09-23T11:45:53.156Z,49.40
2017-09-23T11:48:22.172Z,49.10
2017-09-23T11:50:50.432Z,49.20
2017-09-23T11:53:18.831Z,48.90
2017-09-23T11:55:47.179Z,47.90
2017-09-23T11:58:16.365Z,46.30
2017-09-23T12:00:45.582Z,46.40
2017-09-23T12:03:14.028Z,46.40
2017-09-23T12:05:43.988Z,47.50
2017-09-23T12:08:12.410Z,47.40
2017-09-23T12:10:40.800Z,47.70
2017-09-23T12:13:09.194Z,48.30
2017-09-23T12:15:38.374Z,48.30
2017-09-23T12:18:06.653Z,48.90
2017-09-23T12:20:35.189Z,48.70
2017-09-23T12:23:03.699Z,46.70
2017-09-23T12:25:32.126Z,44.80
2017-09-23T12:28:00.607Z,46.70
2017-09-23T12:30:29.043Z,43.70
2017-09-23T12:32:57.567Z,47.60
2017-09-23T12:35:25.829Z,47.00
2017-09-23T12:37:55.091Z,45.60
2017-09-23T12:40:23.472Z,45.70
2017-09-23T12:42:51.837Z,47.90
2017-09-23T12:45:20.129Z,47.60
2017-09-23T12:47:48.416Z,44.60
2017-09-23T12:52:51.198Z,42.50
2017-09-23T12:55:19.520Z,46.50
2017-09-23T12:57:48.555Z,42.70
2017-09-23T13:00:16.862Z,42.10
2017-09-23T13:02:45.335Z,42.40
2017-09-23T13:05:13.821Z,41.90
2017-09-23T13:07:42.203Z,43.40
2017-09-23T13:10:10.483Z,44.50
2017-09-23T13:12:38.832Z,42.90
2017-09-23T13:15:07.168Z,42.10
2017-09-23T13:17:35.441Z,43.60
2017-09-23T13:20:04.540Z,41.80
2017-09-23T13:22:33.005Z,41.80
2017-09-23T13:25:02.100Z,45.30
2017-09-23T13:27:31.190Z,39.40
2017-09-23T13:30:00.234Z,42.00
2017-09-23T13:32:28.616Z,42.00
2017-09-23T13:34:56.928Z,41.80
2017-09-23T13:37:25.303Z,42.60
2017-09-23T13:39:53.559Z,42.20
2017-09-23T13:42:21.812Z,40.30
2017-09-23T13:44:50.078Z,42.10
2017-09-23T13:47:18.335Z,40.90
2017-09-23T13:49:47.355Z,39.50
2017-09-23T13:52:15.609Z,39.30
2017-09-23T13:54:43.873Z,41.20
2017-09-23T13:57:12.899Z,44.60
2017-09-23T13:59:41.170Z,44.50
2017-09-23T14:02:09.421Z,44.10
2017-09-23T14:04:38.448Z,46.20
2017-09-23T14:07:06.704Z,46.10
2017-09-23T14:09:34.968Z,46.70
2017-09-23T14:12:03.989Z,48.30
2017-09-23T14:14:32.263Z,48.30
2017-09-23T14:17:00.514Z,50.00
2017-09-23T14:19:29.541Z,51.00
2017-09-23T14:21:57.809Z,51.00
2017-09-23T14:24:26.069Z,50.90
2017-09-23T14:26:54.323Z,53.10
2017-09-23T14:29:23.344Z,53.80
2017-09-23T14:31:51.603Z,53.10
2017-09-23T14:34:19.867Z,53.30
2017-09-23T14:36:48.880Z,55.10
2017-09-23T14:39:17.140Z,54.90
2017-09-23T14:41:46.162Z,55.40
2017-09-23T14:44:14.424Z,55.30
2017-09-23T14:46:42.690Z,55.90
2017-09-23T14:49:11.714Z,57.00
2017-09-23T14:51:39.976Z,57.00
2017-09-23T14:54:08.248Z,58.90
2017-09-23T14:56:36.507Z,61.60
2017-09-23T14:59:05.530Z,59.60
2017-09-23T15:01:33.786Z,59.40
2017-09-23T15:04:02.058Z,57.50
2017-09-23T15:06:31.081Z,61.40
2017-09-23T15:08:59.346Z,61.20
2017-09-23T15:11:27.600Z,59.30
2017-09-23T15:13:56.623Z,56.50
2017-09-23T15:16:24.877Z,56.50
2017-09-23T15:18:53.144Z,56.50
2017-09-23T15:21:21.393Z,54.00
2017-09-23T15:23:49.653Z,54.70
2017-09-23T15:26:17.945Z,55.20
2017-09-23T15:28:46.204Z,52.10
2017-09-23T15:31:14.458Z,54.60
2017-09-23T15:33:42.710Z,51.80
2017-09-23T15:36:10.969Z,52.40
2017-09-23T15:38:39.991Z,48.90
2017-09-23T15:41:08.248Z,48.90
2017-09-23T15:43:36.507Z,49.30
2017-09-23T15:46:05.528Z,47.90
2017-09-23T15:48:33.801Z,47.90
2017-09-23T15:51:02.056Z,49.50
2017-09-23T15:53:31.086Z,50.50
2017-09-23T15:55:59.344Z,50.60
2017-09-23T15:58:27.596Z,50.40
2017-09-23T16:00:56.619Z,53.20
2017-09-23T16:03:24.874Z,53.20
2017-09-23T16:05:53.176Z,55.00
2017-09-23T16:08:21.424Z,58.30
2017-09-23T16:10:49.666Z,59.50
2017-09-23T16:13:17.913Z,60.80
2017-09-23T16:15:46.171Z,58.50
2017-09-23T16:18:14.419Z,62.40
2017-09-23T16:20:43.451Z,60.00
2017-09-23T16:23:11.700Z,60.00
2017-09-23T16:25:39.972Z,58.90
2017-09-23T16:28:08.223Z,59.80
2017-09-23T16:30:37.174Z,59.80
2017-09-23T16:33:05.439Z,62.60
2017-09-23T16:35:33.687Z,64.50
2017-09-23T16:38:01.941Z,63.10
2017-09-23T16:40:30.201Z,65.90
2017-09-23T16:42:58.446Z,66.80
2017-09-23T16:45:26.709Z,66.40
2017-09-23T16:47:54.975Z,66.00
2017-09-23T16:50:23.239Z,66.90
2017-09-23T16:52:52.260Z,70.90
2017-09-23T16:55:20.507Z,70.90
2017-09-23T16:57:48.755Z,70.70
2017-09-23T17:00:17.016Z,69.90
2017-09-23T17:02:45.259Z,72.40
2017-09-23T17:05:13.520Z,72.30
2017-09-23T17:07:41.889Z,70.60
2017-09-23T17:10:10.918Z,72.10
2017-09-23T17:12:39.177Z,72.10
2017-09-23T17:15:07.449Z,71.50
2017-09-23T17:17:35.704Z,71.10
2017-09-23T17:20:04.759Z,70.80
2017-09-23T17:22:33.027Z,70.80
2017-09-23T17:25:01.301Z,72.30
2017-09-23T17:27:29.556Z,71.80
2017-09-23T17:29:57.817Z,72.30
2017-09-23T17:32:26.081Z,72.30
2017-09-23T17:34:54.345Z,72.30
2017-09-23T17:37:23.358Z,73.00
2017-09-23T17:39:51.625Z,73.00
2017-09-23T17:42:19.892Z,72.20
2017-09-23T17:44:48.918Z,74.70
2017-09-23T17:47:17.179Z,74.70
2017-09-23T17:49:45.438Z,74.60
2017-09-23T17:52:14.472Z,76.10
2017-09-23T17:54:42.727Z,76.00
2017-09-23T17:57:10.983Z,76.50
2017-09-23T17:59:40.017Z,78.10
2017-09-23T18:02:08.281Z,77.90
2017-09-23T18:04:36.552Z,78.90
2017-09-23T18:07:04.806Z,79.60
2017-09-23T18:09:33.077Z,77.80
2017-09-23T18:12:02.093Z,80.10
2017-09-23T18:14:30.350Z,80.10
2017-09-23T18:17:00.170Z,79.30
2017-09-23T18:19:28.438Z,79.30
2017-09-23T18:21:57.455Z,77.90
2017-09-23T18:24:25.714Z,77.90
2017-09-23T18:26:53.967Z,78.10
2017-09-23T18:29:22.998Z,79.40
2017-09-23T18:31:51.249Z,79.40
2017-09-23T18:34:20.268Z,79.20
2017-09-23T18:36:48.526Z,79.20
2017-09-23T18:39:16.788Z,78.30
2017-09-23T18:41:45.825Z,78.70
2017-09-23T18:44:14.085Z,78.60
2017-09-23T18:46:42.375Z,78.80
2017-09-23T18:49:10.628Z,78.10
2017-09-23T18:51:38.916Z,77.90
2017-09-23T18:54:07.169Z,78.20
2017-09-23T18:56:35.442Z,76.50
2017-09-23T18:59:03.720Z,76.30
2017-09-23T19:01:32.778Z,76.30
2017-09-23T19:04:01.044Z,75.90
2017-09-23T19:06:29.299Z,76.40
2017-09-23T19:08:57.581Z,76.50
2017-09-23T19:11:25.834Z,76.80
2017-09-23T19:13:54.092Z,76.50
2017-09-23T19:16:23.131Z,76.90
2017-09-23T19:18:51.379Z,76.80
2017-09-23T19:21:19.643Z,76.40
2017-09-23T19:23:48.666Z,76.50
2017-09-23T19:26:16.926Z,76.40
2017-09-23T19:28:45.178Z,76.50
2017-09-23T19:31:14.210Z,76.90
2017-09-23T19:33:42.459Z,76.90
2017-09-23T19:36:11.512Z,76.70
2017-09-23T19:38:39.763Z,76.70
2017-09-23T19:41:08.025Z,77.20
2017-09-23T19:43:36.511Z,77.50
2017-09-23T19:46:04.768Z,77.80
2017-09-23T19:48:33.119Z,78.70
2017-09-23T19:51:02.146Z,78.20
2017-09-23T19:53:33.427Z,78.20
2017-09-23T19:56:03.794Z,78.40
2017-09-23T19:58:32.821Z,79.30
2017-09-23T20:01:01.083Z,79.30
2017-09-23T20:03:29.344Z,79.80
2017-09-23T20:05:58.427Z,80.30
2017-09-23T20:08:26.688Z,80.30
2017-09-23T20:10:55.711Z,80.80
2017-09-23T20:13:24.732Z,81.00
2017-09-23T20:15:53.018Z,80.80
2017-09-23T20:18:21.291Z,80.50
2017-09-23T20:20:49.557Z,81.00
2017-09-23T20:23:17.933Z,81.60
2017-09-23T20:25:46.207Z,81.90
2017-09-23T20:28:14.552Z,82.50
2017-09-23T20:30:43.718Z,82.80
2017-09-23T20:33:11.962Z,82.60
2017-09-23T20:35:40.228Z,82.80
2017-09-23T20:38:08.484Z,82.50
2017-09-23T20:40:36.756Z,82.60
2017-09-23T20:43:05.775Z,82.40
2017-09-23T20:45:34.138Z,82.40
2017-09-23T20:48:02.482Z,83.20
2017-09-23T20:50:30.790Z,83.20
2017-09-23T20:52:59.087Z,83.10
2017-09-23T20:55:27.415Z,83.00
2017-09-23T20:57:56.464Z,84.20
2017-09-23T21:00:24.750Z,84.20
2017-09-23T21:02:53.047Z,84.30
2017-09-23T21:05:21.347Z,84.50
2017-09-23T21:07:50.362Z,85.00
2017-09-23T21:10:18.649Z,85.00
2017-09-23T21:12:46.951Z,84.70
2017-09-23T21:15:15.206Z,84.90
2017-09-23T21:17:43.584Z,84.50
2017-09-23T21:20:11.839Z,84.70
2017-09-23T21:22:40.106Z,84.10
2017-09-23T21:25:09.453Z,84.00
2017-09-23T21:27:37.716Z,84.10
2017-09-23T21:30:05.980Z,84.50
2017-09-23T21:32:34.250Z,84.80
2017-09-23T21:35:02.512Z,85.20
2017-09-23T21:37:31.538Z,85.30
2017-09-23T21:39:59.791Z,85.30
2017-09-23T21:42:28.049Z,85.40
2017-09-23T21:44:57.077Z,85.70
2017-09-23T21:47:25.342Z,85.70
2017-09-23T21:49:53.599Z,86.00
2017-09-23T21:52:21.867Z,86.00
2017-09-23T21:54:50.888Z,87.10
2017-09-23T21:57:19.155Z,87.00
2017-09-23T21:59:47.407Z,87.50
2017-09-23T22:02:16.506Z,88.20
2017-09-23T22:04:45.553Z,88.60
2017-09-23T22:07:13.819Z,88.50
2017-09-23T22:09:42.071Z,88.80
2017-09-23T22:12:10.337Z,88.80
2017-09-23T22:14:39.446Z,88.40
2017-09-23T22:17:07.714Z,88.40
2017-09-23T22:19:35.965Z,88.30
2017-09-23T22:22:05.000Z,88.50
2017-09-23T22:24:33.258Z,88.50
2017-09-23T22:27:01.528Z,88.80
2017-09-23T22:29:30.550Z,89.20
2017-09-23T22:31:58.828Z,89.20
2017-09-23T22:34:27.075Z,89.70
2017-09-23T22:36:55.339Z,90.10
2017-09-23T22:39:24.364Z,90.10
2017-09-23T22:41:52.637Z,90.10
2017-09-23T22:44:20.892Z,90.20
2017-09-23T22:46:49.161Z,90.00
2017-09-23T22:49:18.190Z,90.10
2017-09-23T22:51:46.464Z,90.30
2017-09-23T22:54:14.718Z,90.10
2017-09-23T22:56:42.979Z,90.20
2017-09-23T22:59:12.003Z,90.10
2017-09-23T23:01:40.273Z,90.10
2017-09-23T23:04:08.541Z,89.90
2017-09-23T23:06:36.794Z,90.10
2017-09-23T23:09:05.066Z,90.10
2017-09-23T23:11:33.329Z,90.10
2017-09-23T23:14:01.598Z,90.10
2017-09-23T23:16:30.623Z,90.00
2017-09-23T23:18:58.879Z,90.00
2017-09-23T23:21:27.147Z,90.00
2017-09-23T23:23:55.415Z,89.80
2017-09-23T23:26:24.445Z,89.50
2017-09-23T23:28:52.699Z,89.40
2017-09-23T23:31:20.975Z,89.50
2017-09-23T23:33:49.227Z,89.50
2017-09-23T23:36:18.267Z,89.10
2017-09-23T23:38:46.531Z,89.10
2017-09-23T23:41:14.805Z,89.20
2017-09-23T23:43:43.063Z,89.30
2017-09-23T23:46:12.091Z,88.90
2017-09-23T23:48:40.346Z,88.80
2017-09-23T23:51:08.610Z,88.70
2017-09-23T23:53:36.880Z,90.10
2017-09-23T23:56:05.913Z,90.40
2017-09-23T23:58:34.171Z,90.40
